Grand Forks Air Force Base Grand Forks US
ICAO: KRDR
IATA: RDR
Category: Medium
Scheduled Services: No

Elevation: 913 ft
TransAlt. 18000 ft.

Airport Communications:
APP/DEP:118.1
ATIS:27.345
CLNC DEL:119.15
GND:119.15
PMSV METRO:34.35
COMD POST:31.1
PTD:37.22
RDO:122.2
RED RIVER TWR:124.9

KRDR Zoom In..

If you have problems with the map follow the link
https://www.worldairports.se/pages/airport.php?
ICAO=KRDR

Runways:

(A) RW 17 length 12351 ft width 150 ft
ILS 111.30 / hdg 174

(B) RW 35 length 12351 ft width 150 ft
ILS 109.90 / hdg 354

Location; KRDR
Day. 17 / Time. 01.56 Zulu
* Altimeter: 30.34
* Temperature: -10° c. -14°f.
* Wind from: 360° Speed 14 kn.
Dewpoint: -13° c.
Visibility: 10 Statute Miles.
Clouds: Broken 11000 ft.

KRDR 170156Z AUTO 36014KT 10SM BKN110 M10/M13 A3034 RMK AO2 SLP298 T10991129 $


Wind From 360°
Speed 14 kn.

 
 
jpsmedia.com for Web Design worldairports.se 2018   terms of use